createdAt,value
2018-11-01T00:11:50.160Z,3.41
2018-11-01T00:21:52.168Z,3.36
2018-11-01T00:31:53.537Z,3.97
2018-11-01T00:41:55.060Z,4.16
2018-11-01T00:51:56.529Z,3.77
2018-11-01T01:01:58.024Z,3.38
2018-11-01T01:11:58.924Z,3.70
2018-11-01T01:22:00.401Z,3.61
2018-11-01T01:32:01.829Z,3.64
2018-11-01T01:42:02.822Z,3.52
2018-11-01T01:52:05.380Z,3.13
2018-11-01T02:02:07.874Z,2.92
2018-11-01T02:12:09.363Z,3.41
2018-11-01T02:22:11.892Z,3.62
2018-11-01T02:32:13.418Z,3.42
2018-11-01T02:42:14.957Z,3.49
2018-11-01T02:52:16.373Z,3.75
2018-11-01T03:02:17.840Z,3.84
2018-11-01T03:12:19.270Z,3.90
2018-11-01T03:22:20.821Z,4.23
2018-11-01T03:32:22.411Z,3.79
2018-11-01T03:52:30.973Z,3.59
2018-11-01T04:02:32.423Z,3.01
2018-11-01T04:12:33.852Z,3.23
2018-11-01T04:22:35.247Z,2.82
2018-11-01T04:32:36.655Z,3.18
2018-11-01T04:42:38.062Z,3.08
2018-11-01T04:52:38.988Z,3.05
2018-11-01T05:02:40.465Z,3.12
2018-11-01T05:12:42.036Z,2.94
2018-11-01T05:22:43.415Z,3.14
2018-11-01T05:32:44.923Z,2.59
2018-11-01T05:42:46.334Z,2.63
2018-11-01T05:52:47.826Z,3.09
2018-11-01T06:02:49.298Z,3.12
2018-11-01T06:12:50.173Z,3.34
2018-11-01T06:22:51.641Z,3.30
2018-11-01T06:32:53.114Z,3.55
2018-11-01T06:42:54.612Z,3.88
2018-11-01T06:52:56.053Z,4.00
2018-11-01T07:02:57.024Z,4.52
2018-11-01T07:12:59.470Z,4.86
2018-11-01T07:23:01.011Z,5.12
2018-11-01T07:33:02.037Z,5.61
2018-11-01T07:43:03.393Z,5.59
2018-11-01T07:53:04.929Z,5.57
2018-11-01T08:03:06.380Z,6.22
2018-11-01T08:13:07.703Z,5.61
2018-11-01T08:23:09.190Z,6.28
2018-11-01T08:33:10.712Z,6.32
2018-11-01T08:43:12.207Z,6.62
2018-11-01T08:53:13.341Z,5.26
2018-11-01T09:03:14.759Z,4.67
2018-11-01T09:13:16.386Z,5.42
2018-11-01T09:23:18.443Z,5.10
2018-11-01T09:53:34.909Z,5.99
2018-11-01T10:03:36.365Z,6.84
